Antelope Valley, Nevada Weather observations

Data are for 10 minute period ending at time listed.
 Day   Time   Solar   Ave.   Ave.  Ave.  Vector  Max.   Baro.   Total    
  of    of     Rad.   Air    Rel.  Wind   Wind   Wind  Press.  Precip.   
Year   Day            Temp.  Hum.  Speed  Dir.   Gust                    
2014   (PST)  Kw/m2    F      %     mph   deg.    mph    mb.     in.     
-------------------------------------------------------------------------
 355    0:30   0.00   39.2    89    6.7   163    10.7   852.9    0.00 
 355    0:40   0.00   40.4    88    5.0   137    11.0   853.0    0.00 
 355    0:50   0.00   41.6    84    5.2    84    14.6   853.1    0.00 
 355    1:00   0.00   44.2    75    6.3   176    14.4   853.1    0.00 
 355    1:10   0.00   44.2    75    3.8   137     7.6   853.2    0.00 
 355    1:20   0.00   44.8    74    6.4   181    11.6   853.4    0.00 
 355    1:30   0.00   45.2    72    4.9   199    12.3   853.8    0.00 
 355    1:40   0.00   45.1    72    4.6   174    13.0   853.7    0.00 
 355    1:50   0.00   44.9    73    5.5   167    15.8   853.3    0.00 
 355    2:00   0.00   45.2    72    8.5   193    19.0   853.4    0.00 
 355    2:10   0.00   44.8    74    9.0   169    16.7   853.3    0.00 
 355    2:20   0.00   44.3    75   10.8   177    18.9   852.9    0.00 
 355    2:30   0.00   43.8    77    5.4   156    10.3   853.2    0.00 
 355    2:40   0.00   43.0    80    7.6   154    12.3   853.0    0.00 
 355    2:50   0.00   42.2    82    4.4   181     8.0   853.1    0.00 
 355    3:00   0.00   41.6    85    6.4   209     8.6   853.1    0.00 
 355    3:10   0.00   41.8    85    4.5   215     6.9   853.0    0.00 
 355    3:20   0.00   42.3    82    4.1   209     6.4   853.0    0.00 
 355    3:30   0.00   41.6    84    5.8   190     8.3   852.6    0.00 
 355    3:40   0.00   41.7    85    9.9   220    12.9   852.6    0.00 
 355    3:50   0.00   42.6    83   10.2   222    11.9   852.5    0.00 
 355    4:00   0.00   42.5    83    8.2   220    10.3   852.3    0.00 
 355    4:10   0.00   41.8    85    5.3   202     8.3   852.3    0.00 
 355    4:20   0.00   42.1    85    4.5   190     7.3   852.5    0.00 
 355    4:30   0.00   42.0    84    6.1   200     9.6   852.5    0.00 
 355    4:40   0.00   41.9    85    8.0   210    11.0   852.4    0.00 
 355    4:50   0.00   42.6    83    7.6   219    10.3   852.4    0.00 
 355    5:00   0.00   43.0    82    9.3   228    12.6   852.2    0.00 
 355    5:10   0.00   43.6    81   10.1   242    15.1   852.3    0.00 
 355    5:20   0.00   44.2    80   12.6   255    15.9   852.5    0.00 
 355    5:30   0.00   43.8    81   12.0   258    14.5   852.4    0.00 
 355    5:40   0.00   43.7    82   12.1   251    16.4   852.5    0.00 
 355    5:50   0.00   44.1    80   12.7   247    18.1   852.6    0.00 
 355    6:00   0.00   45.4    77   13.9   249    20.0   852.5    0.00 
 355    6:10   0.00   45.8    76   13.7   251    18.3   852.7    0.00 
 355    6:20   0.00   45.8    77   11.0   248    14.0   852.9    0.00 
 355    6:30   0.00   45.4    78    8.6   248    11.7   852.9    0.00 
 355    6:40   0.00   45.1    79    8.8   263    13.2   853.0    0.00 
 355    6:50   0.00   45.4    78    8.8   258    12.8   853.0    0.00 
 355    7:00   0.00   44.8    80    8.3   250    11.4   852.9    0.00 
 355    7:10   0.00   45.9    78   10.6   248    13.7   853.0    0.00 
 355    7:20   0.01   45.7    78   10.5   259    14.6   853.2    0.00 
 355    7:30   0.01   46.1    76   11.3   254    15.0   853.2    0.00 
 355    7:40   0.02   45.9    78   11.8   247    15.0   852.9    0.00 
 355    7:50   0.03   46.7    76   14.0   248    19.1   853.0    0.00 
 355    8:00   0.05   47.2    76   13.9   248    17.6   853.1    0.00 
 355    8:10   0.06   47.4    75   14.2   246    18.5   853.0    0.00 
 355    8:20   0.07   48.2    74   14.8   249    20.2   853.3    0.00 
 355    8:30   0.08   48.5    72   15.3   255    20.3   853.4    0.00 
 355    8:40   0.10   48.9    72   16.1   251    21.5   853.7    0.00 
 355    8:50   0.11   49.5    71   14.5   257    19.6   853.9    0.00 
 355    9:00   0.12   49.3    73   13.2   244    17.1   853.9    0.00 
 355    9:10   0.11   49.7    72   13.4   244    17.5   854.1    0.00 
 355    9:20   0.13   49.8    72   11.0   241    14.8   854.1    0.00 
 355    9:30   0.13   50.5    70   12.6   241    17.9   854.2    0.00 
 355    9:40   0.14   50.5    71   11.8   242    17.2   854.3    0.00 
 355    9:50   0.17   50.8    71   15.4   242    22.0   854.3    0.00 
 355   10:00   0.27   51.3    70   16.8   240    21.8   854.1    0.00 
 355   10:10   0.29   52.0    69   15.4   241    20.6   854.3    0.00 
 355   10:20   0.20   51.9    69   14.9   238    19.4   854.5    0.00 
 355   10:30   0.09   51.2    70   13.2   228    17.5   854.7    0.00 
 355   10:40   0.06   50.8    70   12.0   224    16.4   854.7    0.00 
 355   10:50   0.07   50.7    70   11.4   220    16.0   854.7    0.00 
 355   11:00   0.12   50.8    70   11.2   221    16.5   854.6    0.00 
 355   11:10   0.12   51.1    70   11.4   220    15.8   854.6    0.00 
 355   11:20   0.10   51.1    70   10.9   222    13.7   854.5    0.00 
 355   11:30   0.13   51.3    70   11.4   225    16.1   854.2    0.00 
 355   11:40   0.12   51.4    70   14.4   230    17.8   854.3    0.00 
 355   11:50   0.07   51.0    70   13.2   225    16.7   854.2    0.00 
 355   12:00   0.05   50.9    70   12.2   217    16.6   854.2    0.00 
 355   12:10   0.04   50.6    71   11.3   213    14.9   854.1    0.00 
 355   12:20   0.06   50.6    71   13.4   210    18.0   853.9    0.00 
 355   12:30   0.05   50.7    71   12.7   211    17.3   853.9    0.00 
 355   12:40   0.04   50.5    72   10.5   211    14.8   853.8    0.00 
 355   12:50   0.03   50.4    72    9.4   212    12.5   854.0    0.00 
 355   13:00   0.03   50.3    72    9.9   189    13.6   853.9    0.00 
 355   13:10   0.03   50.5    72    9.7   191    14.8   853.9    0.00 
 355   13:20   0.03   50.7    71   10.7   191    14.5   853.8    0.00 
 355   13:30   0.03   50.5    72    9.7   209    12.9   853.9    0.00 
 355   13:40   0.04   50.8    71    9.0   218    13.6   854.0    0.00 
 355   13:50   0.03   51.3    69    9.2   227    12.3   854.0    0.00 
 355   14:00   0.04   51.1    70    6.6   226     9.3   853.9    0.00 
 355   14:10   0.04   50.7    72    6.8   204    10.0   853.9    0.00 
 355   14:20   0.04   50.9    71   10.6   218    15.1   853.8    0.00 
 355   14:30   0.03   50.6    72    8.6   213    13.9   853.7    0.00 
 355   14:40   0.02   50.3    74    7.7   181    11.5   853.8    0.00 
 355   14:50   0.02   50.0    74    8.4   200    12.3   853.9    0.00 
 355   15:00   0.02   50.2    73    8.8   199    12.4   853.8    0.00 
 355   15:10   0.01   50.2    73    9.2   208    12.8   853.8    0.00 
 355   15:20   0.01   50.8    71   10.9   226    19.4   854.2    0.00 
 355   15:30   0.02   51.0    71   11.9   225    19.1   854.2    0.00 
 355   15:40   0.02   49.9    76   13.3   228    18.1   854.3    0.00 
 355   15:50   0.02   49.1    80   11.8   223    18.6   854.5    0.00 
 355   16:00   0.01   49.1    79   10.6   218    16.7   854.3    0.00 
 355   16:10   0.01   48.7    81    7.7   221    11.5   854.4    0.00 
 355   16:20   0.01   48.8    80    9.3   218    13.9   854.2    0.00 
 355   16:30   0.00   48.8    79    7.6   207    10.9   854.1    0.00 
 355   16:40   0.00   48.2    82    6.7   200     8.6   854.0    0.00 
 355   16:50   0.00   47.8    83    5.3   198     7.4   854.2    0.00 
 355   17:00   0.00   47.9    82    6.5   195     8.5   854.3    0.00 
 355   17:10   0.00   48.0    82    6.9   203     9.9   854.5    0.00 
 355   17:20   0.00   48.3    81    6.6   223     9.0   854.6    0.00 
 355   17:30   0.00   48.7    80    5.4   221     9.8   854.7    0.00 
 355   17:40   0.00   48.8    80    4.0   226     8.5   854.8    0.01 
 355   17:50   0.00   48.1    82    3.9   182     6.5   854.8    0.00 
 355   18:00   0.00   48.2    82    2.2   182     4.2   855.0    0.00 
 355   18:10   0.00   48.9    80    1.9   205     4.0   855.3    0.00 
 355   18:20   0.00   49.1    79    7.2   221    15.0   855.1    0.00 
 355   18:30   0.00   48.0    82    7.2   195    10.4   855.2    0.00 
 355   18:40   0.00   47.9    83    7.1   190    12.7   855.3    0.00 
 355   18:50   0.00   48.6    80    6.8   224     9.8   855.3    0.00 
 355   19:00   0.00   48.4    80    8.1   230    11.3   855.4    0.00 
 355   19:10   0.00   48.3    80    7.9   233    10.7   855.4    0.00 
 355   19:20   0.00   48.6    78    7.9   245    11.4   855.4    0.00 
 355   19:30   0.00   48.4    78    7.4   260    10.4   855.4    0.00 
 355   19:40   0.00   49.3    75    8.6   263    14.4   855.1    0.00 
 355   19:50   0.00   49.0    75    5.5   234     9.6   855.2    0.00 
 355   20:00   0.00   48.2    78    8.3   253    17.0   855.4    0.00 
 355   20:10   0.00   48.5    78   11.8   257    18.4   855.4    0.00 
 355   20:20   0.00   48.0    80    9.9   233    15.6   855.4    0.00 
 355   20:30   0.00   47.7    81    7.3   222    10.7   855.4    0.00 
 355   20:40   0.00   48.1    78    9.0   250    16.0   855.5    0.00 
 355   20:50   0.00   49.3    74   11.1   259    17.2   855.6    0.00 
 355   21:00   0.00   47.9    79    7.8   251    11.2   855.8    0.00 
 355   21:10   0.00   47.5    80    5.0   230     9.7   855.8    0.00 
 355   21:20   0.00   46.9    82    4.0   204     5.9   855.9    0.00 
 355   21:30   0.00   46.7    82    4.4   222     7.2   856.0    0.00 
 355   21:40   0.00   46.1    84    6.9   193    10.7   856.0    0.00 
 355   21:50   0.00   46.1    84    8.5   192    11.0   856.0    0.00 
 355   22:00   0.00   45.8    86    7.4   193     9.6   856.0    0.00 
 355   22:10   0.00   45.9    85    7.2   201     9.9   856.1    0.00 
 355   22:20   0.00   45.7    86    8.0   176    10.3   856.2    0.00 
 355   22:30   0.00   46.1    85    6.4   162    10.8   856.2    0.00 
 355   22:40   0.00   46.0    85    6.7   162     8.3   856.3    0.00 
 355   22:50   0.00   46.1    84    6.3   178     8.2   856.2    0.00 
 355   23:00   0.00   46.5    83    6.8   193     8.3   856.1    0.00 
 355   23:10   0.00   46.0    84    5.6   203     7.0   856.2    0.00 
 355   23:20   0.00   45.5    85    5.9   208     7.3   856.1    0.00 
 355   23:30   0.00   46.0    84    7.7   221    10.1   856.1    0.00 
 355   23:40   0.00   47.1    79    7.2   232     9.1   856.1    0.00 
 355   23:50   0.00   47.1    78    6.5   231     9.0   856.0    0.00 
 356    0:00   0.00   46.3    81    6.7   227     8.2   855.9    0.00 
 356    0:10   0.00   46.6    79    6.4   227     9.2   855.7    0.00 
 356    0:20   0.00   47.6    74    8.6   241    12.2   855.6    0.00 

Return to Antelope Valley graphs page.


Western Regional Climate Center,wrcc@dri.edu